createdAt,value
2022-11-16T00:02:07.445Z,9.12
2022-11-16T00:09:22.547Z,8.97
2022-11-16T00:16:24.126Z,8.99
2022-11-16T00:23:25.715Z,8.98
2022-11-16T00:30:27.285Z,8.87
2022-11-16T00:37:28.886Z,8.90
2022-11-16T00:44:30.532Z,8.91
2022-11-16T00:51:32.806Z,8.75
2022-11-16T00:58:34.895Z,8.69
2022-11-16T01:05:41.098Z,8.71
2022-11-16T01:12:42.981Z,8.71
2022-11-16T01:19:44.611Z,8.66
2022-11-16T01:26:46.258Z,8.61
2022-11-16T01:33:48.339Z,8.58
2022-11-16T01:40:59.327Z,8.65
2022-11-16T01:48:04.743Z,8.59
2022-11-16T01:55:08.898Z,8.58
2022-11-16T02:02:20.535Z,8.64
2022-11-16T02:09:49.861Z,8.61
2022-11-16T02:17:19.788Z,8.62
2022-11-16T02:24:56.785Z,8.56
2022-11-16T02:32:23.298Z,8.55
2022-11-16T02:39:27.146Z,8.42
2022-11-16T02:46:36.041Z,8.48
2022-11-16T02:53:57.598Z,8.43
2022-11-16T03:01:03.288Z,8.41
2022-11-16T03:08:20.369Z,8.41
2022-11-16T03:15:23.976Z,8.44
2022-11-16T03:22:35.387Z,8.42
2022-11-16T03:29:47.112Z,8.34
2022-11-16T03:36:48.787Z,8.27
2022-11-16T03:43:50.528Z,8.38
2022-11-16T03:50:53.130Z,8.31
2022-11-16T03:57:55.585Z,8.28
2022-11-16T04:05:17.604Z,8.38
2022-11-16T04:12:37.846Z,8.33
2022-11-16T04:19:58.485Z,8.42
2022-11-16T04:27:22.825Z,8.40
2022-11-16T04:34:43.257Z,8.34
2022-11-16T04:42:03.584Z,8.43
2022-11-16T04:49:06.773Z,8.31
2022-11-16T04:56:08.514Z,8.37
2022-11-16T05:03:10.364Z,8.40
2022-11-16T05:10:13.912Z,8.48
2022-11-16T05:17:16.108Z,8.45
2022-11-16T05:24:36.011Z,8.54
2022-11-16T05:31:40.585Z,8.53
2022-11-16T05:38:43.618Z,8.62
2022-11-16T05:45:45.606Z,8.70
2022-11-16T05:52:49.561Z,8.73
2022-11-16T05:59:51.239Z,8.77
2022-11-16T06:06:53.293Z,8.88
2022-11-16T06:13:55.053Z,8.81
2022-11-16T06:20:56.804Z,8.63
2022-11-16T06:28:01.913Z,8.72
2022-11-16T06:35:08.105Z,8.74
2022-11-16T06:42:10.109Z,8.71
2022-11-16T06:49:13.663Z,8.73
2022-11-16T06:56:16.313Z,8.85
2022-11-16T07:03:23.737Z,8.93
2022-11-16T07:10:25.760Z,8.98
2022-11-16T07:17:28.324Z,8.97
2022-11-16T07:24:30.398Z,8.96
2022-11-16T07:31:32.149Z,8.94
2022-11-16T07:39:07.021Z,9.05
2022-11-16T07:46:45.459Z,8.92
2022-11-16T07:53:43.367Z,8.86
2022-11-16T08:00:45.055Z,9.01
2022-11-16T08:07:49.766Z,8.98
2022-11-16T08:14:52.749Z,8.98
2022-11-16T08:21:55.302Z,9.01
2022-11-16T08:28:57.373Z,9.05
2022-11-16T08:36:14.176Z,9.00
2022-11-16T08:43:17.343Z,9.00
2022-11-16T08:50:19.297Z,9.03
2022-11-16T08:57:20.920Z,8.99
2022-11-16T09:04:29.608Z,9.02
2022-11-16T09:11:33.181Z,9.00
2022-11-16T09:18:35.409Z,9.12
2022-11-16T09:25:37.170Z,9.16
2022-11-16T09:32:38.747Z,9.16
2022-11-16T09:39:40.304Z,9.21
2022-11-16T09:46:44.012Z,9.13
2022-11-16T09:53:47.576Z,9.11
2022-11-16T10:00:54.234Z,8.91
2022-11-16T10:08:33.800Z,9.05
2022-11-16T10:15:50.305Z,9.08
2022-11-16T10:23:01.155Z,9.00
2022-11-16T10:30:16.069Z,9.06
2022-11-16T10:37:17.644Z,8.91
2022-11-16T10:44:39.772Z,8.98
2022-11-16T10:51:41.423Z,9.05
2022-11-16T10:58:49.809Z,9.10
2022-11-16T11:05:54.444Z,8.96
2022-11-16T11:13:22.307Z,8.94
2022-11-16T11:20:24.378Z,8.93
2022-11-16T11:27:29.096Z,8.95
2022-11-16T11:34:41.715Z,8.95
2022-11-16T11:41:44.188Z,9.03
2022-11-16T11:48:56.538Z,9.18
2022-11-16T11:55:58.503Z,9.16
2022-11-16T12:03:26.705Z,9.01
2022-11-16T12:10:40.959Z,9.06
2022-11-16T12:18:03.395Z,9.12
2022-11-16T12:25:14.906Z,9.09
2022-11-16T12:32:16.435Z,9.18
2022-11-16T12:39:34.472Z,9.13
2022-11-16T12:46:54.873Z,9.15
2022-11-16T12:54:12.498Z,9.20
2022-11-16T13:01:17.919Z,9.25
2022-11-16T13:08:23.298Z,9.29
2022-11-16T13:15:37.161Z,9.27
2022-11-16T13:22:38.696Z,9.30
2022-11-16T13:29:47.759Z,9.22
2022-11-16T13:36:49.336Z,9.32
2022-11-16T13:43:50.959Z,9.36
2022-11-16T13:50:57.448Z,9.43
2022-11-16T13:58:00.305Z,9.44
2022-11-16T14:05:11.830Z,9.44
2022-11-16T14:12:38.316Z,9.50
2022-11-16T14:19:49.130Z,9.42
2022-11-16T14:27:18.678Z,9.37
2022-11-16T14:34:22.830Z,9.36
2022-11-16T14:41:24.434Z,9.38
2022-11-16T14:48:26.149Z,9.32
2022-11-16T14:55:27.863Z,9.29
2022-11-16T15:02:29.432Z,9.31
2022-11-16T15:09:36.955Z,9.36
2022-11-16T15:16:51.915Z,9.46
2022-11-16T15:24:23.421Z,9.36
2022-11-16T15:31:15.383Z,9.34
2022-11-16T15:38:18.904Z,9.32
2022-11-16T15:45:24.866Z,9.23
2022-11-16T15:52:45.884Z,9.33
2022-11-16T16:00:00.020Z,9.57
2022-11-16T16:07:01.712Z,9.57
2022-11-16T16:14:03.587Z,9.55
2022-11-16T16:21:05.178Z,9.48
2022-11-16T16:28:06.734Z,9.49
2022-11-16T16:35:15.316Z,9.49
2022-11-16T16:42:17.085Z,9.46
2022-11-16T16:49:18.664Z,9.47
2022-11-16T16:56:20.273Z,9.54
2022-11-16T17:03:21.879Z,9.57
2022-11-16T17:10:23.590Z,9.55
2022-11-16T17:17:25.458Z,9.51
2022-11-16T17:24:27.029Z,9.46
2022-11-16T17:31:28.655Z,9.43
2022-11-16T17:38:31.175Z,9.48
2022-11-16T17:45:32.774Z,9.41
2022-11-16T17:52:34.338Z,9.52
2022-11-16T17:59:35.953Z,9.51
2022-11-16T18:06:37.613Z,9.33
2022-11-16T18:13:39.254Z,9.35
2022-11-16T18:20:40.819Z,9.44
2022-11-16T18:27:42.385Z,9.47
2022-11-16T18:34:44.035Z,9.32
2022-11-16T18:41:51.536Z,9.41
2022-11-16T18:48:56.114Z,9.30
2022-11-16T18:55:58.350Z,9.36
2022-11-16T19:03:00.091Z,9.35
2022-11-16T19:10:01.648Z,9.41
2022-11-16T19:17:04.826Z,9.35
2022-11-16T19:24:06.728Z,9.22
2022-11-16T19:31:08.876Z,9.23
2022-11-16T19:38:10.484Z,9.22
2022-11-16T19:45:12.033Z,9.30
2022-11-16T19:52:13.855Z,9.26
2022-11-16T19:59:15.397Z,9.37
2022-11-16T20:06:19.180Z,9.25
2022-11-16T20:13:22.008Z,9.39
2022-11-16T20:20:23.605Z,9.36
2022-11-16T20:27:25.416Z,9.36
2022-11-16T20:34:27.026Z,9.18
2022-11-16T20:41:29.887Z,9.12
2022-11-16T20:48:31.473Z,9.14
2022-11-16T20:55:33.083Z,9.10
2022-11-16T21:02:34.729Z,9.07
2022-11-16T21:09:56.315Z,8.93
2022-11-16T21:16:57.926Z,8.87
2022-11-16T21:23:59.563Z,8.79
2022-11-16T21:31:02.444Z,8.77
2022-11-16T21:38:04.045Z,8.84
2022-11-16T21:45:06.143Z,8.80
2022-11-16T21:52:07.735Z,8.75
2022-11-16T21:59:09.352Z,8.72
2022-11-16T22:06:31.921Z,8.71
2022-11-16T22:13:34.133Z,8.63
2022-11-16T22:20:35.950Z,8.65
2022-11-16T22:27:52.337Z,8.60
2022-11-16T22:34:59.193Z,8.64
2022-11-16T22:42:01.093Z,8.64
2022-11-16T22:49:02.693Z,8.68
2022-11-16T22:56:06.181Z,8.44
2022-11-16T23:03:07.819Z,8.31
2022-11-16T23:10:09.964Z,8.31
2022-11-16T23:17:11.543Z,8.28
2022-11-16T23:24:32.379Z,8.06
2022-11-16T23:31:35.400Z,8.03
2022-11-16T23:38:37.027Z,8.06
2022-11-16T23:45:39.201Z,7.97
2022-11-16T23:52:40.792Z,7.97
2022-11-16T23:59:42.407Z,7.88
